Hovedside
METAR-TAF:

METAR-TAF

Lufthavner :

Yap, Mikronesia

breddegrad: 09-29N, lengdegrad: 138-05E, høyde over havet: 28 m

Gjeldene værobservasjon

Denne rapporten ble laget for 46 minutter siden, klokken 14:50 UTC
Vind 4 kt fra skiftende retning
Temperatur 28°C
Luftfuktighet 89%
Trykk 1007 hPa
Sikt: 19.3 km
Få skyer i en høyde av 1600 ft, Tårnskyer (cumulus).
Spredte skyer i en høyde av 13000 ft
Brutte skyer i en høyde av 30000 ft

METAR: PTYA 201450Z VRB04KT 12SM FEW016TCU SCT130 BKN300 28/26 A2975 RMK TCU W SLP074 60000 8/271 T02790257 403130257 57008

Tid: 01:36 (15:36 UTC)

Varsel

Denne rapporten ble laget for 4 timer og 8 minutter siden, klokken 11:28 UTC
Varsel gyldig fra 20. klokken 12 UTC til 21. klokken 12 UTC
Vind 9 kt fra Vest
Sikt: 10 km
Spredte skyer i en høyde av 1600 ft
Brutte skyer i en høyde av 13000 ft
regnbyger i nærheten

TAF: PTYA 201128Z 2012/2112 28009KT P6SM VCSH SCT016 BKN130

Værobservasjoner og værvarsel for over 4000 flyplasser (METAR- og TAF-rapporter).

Tilgjengelige stasjoner er representert av de røde og gule prikkene på kartet.

Hold musepekeren over prikken for å se navnet på stasjonen.

Klikk så for å se værobservasjoner og -varsler.

For å forandre kartet kan du klikke på den grønne knappen med svart kryss for å zoome inn, på den grønne knappen med strek for å zoome ut, eller på de grønne pilene for å se tilstøtende kart.


METAR-TAF: